Latest Coastal Weather Observations for Maningrida Airport

IDD60701

Issued at 2:21 pm CST Monday 27 February 2017 (issued every 10 minutes, with the page automatically refreshed every 10 minutes)

About coastal observations | Map of coastal stations | Coastal observations for NT | Marine services | Other Formats
Station Details ID: 014405 Name: MANINGRIDA AIRPORT Lat: -12.06 Lon: 134.23 Height: 28.1 m
Data from the previous 72 hours. | See also: Recent months at Maningrida Airport
Date/Time
CST
Temp
°C
Wind Pressure Rain since
9am
mm
Weather Cloud Vis
km
Sea
Height
m
Swell
Dir  Spd
kts
Gust
kts
hPa Trend Height
m
Period
s
Dir
27/02:00pm 30.1 NNE 10 13 1006.0 - 0.2 - Partly cloudy 10 - - - -
27/01:30pm 31.5 NNE 10 13 1006.4 - 0.2 - Partly cloudy 10 - - - -
27/01:00pm 30.7 WNW 4 7 1007.1 - 0.2 - Partly cloudy 10 - - - -
27/12:30pm 30.2 N 7 9 1007.7 - 0.2 - Partly cloudy 10 - - - -
27/12:00pm 31.0 ENE 6 9 1008.1 - 0.2 - Cloudy 10 - - - -
27/11:30am 30.7 SE 5 7 1008.4 - 0.2 - Partly cloudy 10 - - - -
27/11:00am 30.8 ESE 5 10 1008.7 - 0.2 - Partly cloudy 10 - - - -
27/10:30am 30.6 ESE 6 9 1009.2 - 0.2 - Partly cloudy 10 - - - -
27/10:00am 29.7 SSE 6 9 1009.2 - 0.2 - Partly cloudy 10 - - - -
27/09:30am 29.8 SE 7 10 1009.2 - 0.2 - - 10 - - - -
27/09:00am 29.2 SSE 5 8 1009.3 - 6.4 - - 10 - - - -
27/08:30am 28.3 SSE 6 9 1008.9 - 6.4 - - 10 - - - -
27/08:00am 27.0 SSE 6 9 1008.3 - 6.4 - - 10 - - - -
27/07:30am 25.3 S 5 7 1007.9 - 6.4 - - 10 - - - -
27/07:00am 24.9 SSE 5 6 1007.8 - 6.4 - - 10 - - - -
27/06:30am 24.6 SSW 4 6 1007.6 - 6.4 - - 10 - - - -
27/06:00am 24.8 S 5 8 1007.3 - 6.4 - Mostly clear 10 - - - -
27/05:30am 24.9 SSE 4 5 1007.2 - 6.4 - Partly cloudy 10 - - - -
27/05:00am 25.0 S 6 8 1007.4 - 6.4 - Partly cloudy 10 - - - -
27/04:30am 25.0 S 5 7 1007.4 - 6.4 - Partly cloudy 10 - - - -
27/04:25am 25.0 S 5 7 1007.5 - 6.4 - Partly cloudy 10 - - - -
27/04:00am 24.9 SW 4 5 1007.5 - 6.4 - Partly cloudy 10 - - - -
27/03:45am 24.9 SW 3 5 1007.6 - 6.4 - Partly cloudy 10 - - - -
27/03:30am 24.9 SW 3 5 1007.6 - 6.4 - Partly cloudy 10 - - - -
27/03:00am 24.8 SW 4 6 1007.5 - 6.4 Rain Mostly cloudy 10 - - - -
27/02:30am 24.8 SSW 4 6 1007.4 - 6.4 - Partly cloudy 10 - - - -
27/02:00am 25.3 S 4 6 1007.6 - 6.4 - Partly cloudy 7 - - - -
27/01:40am 25.5 SSW 4 6 1008.0 - 6.4 - Partly cloudy 10 - - - -
27/01:30am 25.6 SSW 4 6 1008.3 - 6.2 - Partly cloudy 4 - - - -
27/01:17am 25.8 SSW 4 6 1008.4 - 6.2 - Partly cloudy 4 - - - -
27/01:14am 25.7 SSW 4 6 1008.4 - 6.2 - Partly cloudy 7 - - - -
27/01:00am 26.0 SSE 5 8 1008.5 - 6.0 - Partly cloudy 2 - - - -
27/12:52am 26.0 SSE 5 7 1008.8 - 6.0 - Partly cloudy 5 - - - -
27/12:30am 26.1 SE 6 9 1009.1 - 6.0 - Partly cloudy 10 - - - -
27/12:00am 25.9 S 5 7 1009.2 - 6.0 - Mostly cloudy 10 - - - -
 
Date/Time
CST
Temp
°C
Wind Pressure Rain since
9am
mm
Weather Cloud Vis
km
Sea
Height
m
Swell
Dir  Spd
kts
Gust
kts
hPa Trend Height
m
Period
s
Dir
26/11:30pm 25.9 SW 5 5 1009.0 - 6.0 - Partly cloudy 10 - - - -
26/11:00pm 25.8 SSW 4 6 1009.2 - 6.0 - Partly cloudy 10 - - - -
26/10:30pm 25.8 SW 3 5 1009.0 - 6.0 - Partly cloudy 10 - - - -
26/10:00pm 25.7 SW 3 4 1009.0 - 6.0 - - 10 - - - -
26/09:30pm 25.8 SW 3 4 1008.3 - 6.0 - - 10 - - - -
26/09:00pm 25.9 SW 4 5 1007.9 - 6.0 - Mostly clear 10 - - - -
26/08:30pm 26.4 SW 3 6 1007.7 - 6.0 - Partly cloudy 10 - - - -
26/08:00pm 26.7 NE 4 7 1007.4 - 6.0 - Partly cloudy 10 - - - -
26/07:30pm 26.9 ENE 5 7 1006.9 - 6.0 - - 10 - - - -
26/07:00pm 26.7 NE 6 9 1006.4 - 6.0 - Partly cloudy 10 - - - -
26/06:30pm 26.8 E 7 11 1006.4 - 6.0 - Partly cloudy 10 - - - -
26/06:00pm 25.7 NE 6 8 1005.8 - 6.0 Showers Mostly cloudy 10 - - - -
26/05:30pm 25.2 NNW 8 9 1005.5 - 6.0 - Partly cloudy 10 - - - -
26/05:21pm 25.0 NW 5 8 1005.7 - 5.4 - Partly cloudy 10 - - - -
26/05:00pm 24.7 S 9 19 1006.2 - 4.2 - Partly cloudy 2 - - - -
26/04:55pm 25.3 SSE 13 19 1006.3 - 2.4 - Partly cloudy 5 - - - -
26/04:53pm 25.8 SSE 15 24 1006.3 - 0.6 - Partly cloudy 10 - - - -
26/04:30pm 31.1 N 12 15 1004.9 - 0.0 - - 10 - - - -
26/04:00pm 31.2 N 11 14 1004.6 - 0.0 - - 10 - - - -
26/03:30pm 31.6 N 9 13 1004.9 - 0.0 - Partly cloudy 10 - - - -
26/03:00pm 32.2 N 10 12 1005.0 - 0.0 - Partly cloudy 10 - - - -
26/02:30pm 31.6 NE 8 11 1005.3 - 0.0 - - 10 - - - -
26/02:00pm 31.9 N 9 11 1005.3 - 0.0 - Partly cloudy 10 - - - -
26/01:30pm 31.6 N 8 11 1005.5 - 0.0 - Partly cloudy 10 - - - -
26/01:00pm 30.8 N 8 12 1005.8 - 0.0 - Partly cloudy 10 - - - -
26/12:30pm 31.2 ENE 6 9 1006.5 - 0.0 - Partly cloudy 10 - - - -
26/12:00pm 33.2 ESE 7 13 1006.6 - 0.0 - Mostly cloudy 10 - - - -
26/11:30am 31.4 SW 3 6 1007.0 - 0.0 - Partly cloudy 10 - - - -
26/11:00am 30.9 S 5 8 1007.3 - 0.0 - Partly cloudy 10 - - - -
26/10:30am 31.1 S 4 7 1007.7 - 0.0 - Partly cloudy 10 - - - -
26/10:00am 30.4 SW 1 5 1008.1 - 0.0 - Partly cloudy 10 - - - -
26/09:30am 30.6 SE 4 6 1008.2 - 0.0 - - 10 - - - -
26/09:00am 28.9 SSW 5 6 1008.2 - 18.0 - - 10 - - - -
26/08:30am 28.1 SW 3 5 1008.1 - 18.0 - - 10 - - - -
26/08:00am 26.0 SSW 4 6 1008.0 - 18.0 - - 10 - - - -
26/07:30am 25.9 CALM 0 0 1007.8 - 18.0 - - 10 - - - -
26/07:00am 24.8 SW 2 4 1007.5 - 18.0 - - 10 - - - -
26/06:30am 24.5 SW 2 4 1007.4 - 18.0 - - 10 - - - -
26/06:00am 24.5 SW 3 4 1006.9 - 18.0 - - 10 - - - -
26/05:30am 24.6 SW 1 3 1006.8 - 18.0 - - 10 - - - -
26/05:00am 24.7 CALM 0 0 1006.8 - 18.0 - - 10 - - - -
26/04:30am 24.8 SW 2 3 1006.6 - 18.0 - - 10 - - - -
26/04:00am 24.8 SW 3 5 1006.4 - 17.8 - - 10 - - - -
26/03:30am 24.9 SW 3 4 1006.7 - 17.8 - - 10 - - - -
26/03:00am 24.8 SW 4 5 1007.1 - 17.8 - - 10 - - - -
26/02:30am 24.8 SW 4 5 1007.4 - 17.8 - - 10 - - - -
26/02:00am 24.7 SW 3 4 1007.9 - 17.8 - - 10 - - - -
26/01:30am 24.8 SSW 3 5 1008.2 - 17.8 - - 10 - - - -
26/01:00am 24.7 SW 4 6 1008.6 - 17.8 - - 10 - - - -
26/12:30am 24.6 SSW 4 6 1009.0 - 17.8 - - 10 - - - -
26/12:00am 24.7 SW 5 7 1009.3 - 17.8 - - 10 - - - -
 
Date/Time
CST
Temp
°C
Wind Pressure Rain since
9am
mm
Weather Cloud Vis
km
Sea
Height
m
Swell
Dir  Spd
kts
Gust
kts
hPa Trend Height
m
Period
s
Dir
25/11:30pm 24.6 SW 4 6 1009.6 - 17.8 - - 10 - - - -
25/11:00pm 24.5 S 4 5 1009.5 - 17.8 - - 10 - - - -
25/10:30pm 24.5 S 4 6 1009.4 - 17.8 - - 10 - - - -
25/10:00pm 24.7 SSW 4 5 1009.1 - 17.8 - - 10 - - - -
25/09:30pm 24.7 SW 3 4 1008.7 - 17.8 - - 10 - - - -
25/09:00pm 24.7 SSW 5 6 1008.5 - 17.8 - - 10 - - - -
25/08:30pm 25.0 SSW 3 4 1008.1 - 17.8 - - 10 - - - -
25/08:00pm 25.2 W 1 4 1007.6 - 17.8 - - 10 - - - -
25/07:30pm 25.1 W 3 5 1007.6 - 17.8 - - 10 - - - -
25/07:00pm 25.0 CALM 0 4 1006.9 - 17.8 - - 10 - - - -
25/06:30pm 25.0 SSW 3 4 1007.0 - 17.8 - - 10 - - - -
25/06:00pm 25.0 SW 5 7 1007.3 - 17.8 Drizzle Mostly cloudy 10 - - - -
25/05:30pm 24.7 SE 3 5 1007.1 - 17.8 - - 10 - - - -
25/05:00pm 24.6 SE 1 4 1007.2 - 17.8 - Partly cloudy 10 - - - -
25/04:30pm 24.1 NE 6 8 1007.3 - 17.4 - Partly cloudy 10 - - - -
25/04:05pm 24.0 SE 7 9 1008.1 - 16.6 - Partly cloudy 10 - - - -
25/04:00pm 24.0 SE 8 13 1008.2 - 16.4 - Partly cloudy 10 - - - -
25/03:58pm 24.1 SE 8 13 1008.2 - 16.4 - Partly cloudy 10 - - - -
25/03:37pm 23.5 ESE 15 25 1008.7 - 15.2 - Partly cloudy 2 - - - -
25/03:36pm 23.4 ESE 16 25 1008.7 - 15.0 - Partly cloudy 2 - - - -
25/03:30pm 23.4 ESE 18 26 1008.8 - 12.0 - Partly cloudy 1 - - - -
25/03:24pm 23.9 E 18 26 1008.7 - 7.0 - Partly cloudy 4 - - - -
25/03:08pm 27.9 NNE 12 42 1008.2 - 4.0 - Partly cloudy 10 - - - -
25/03:00pm 31.7 N 8 10 1007.5 - 4.0 - Mostly clear 10 - - - -
25/02:30pm 32.2 N 7 9 1007.3 - 4.0 - - 10 - - - -
25/02:00pm 31.4 NNE 5 9 1007.9 - 4.0 - - 10 - - - -
25/01:30pm 30.9 SSW 4 9 1008.2 - 4.0 - - 10 - - - -
25/01:00pm 29.6 NW 7 9 1008.8 - 3.8 - Partly cloudy 10 - - - -
25/12:57pm 29.4 NW 7 9 1008.8 - 3.8 - Partly cloudy 10 - - - -
25/12:40pm 28.0 NNW 4 7 1009.2 - 3.8 - Partly cloudy 5 - - - -
25/12:39pm 27.9 NNW 5 8 1009.2 - 3.6 - Partly cloudy 6 - - - -
25/12:30pm 27.7 NW 8 13 1009.2 - 3.0 - Partly cloudy 9 - - - -
25/12:19pm 28.1 N 8 13 1009.8 - 2.6 - Partly cloudy 4 - - - -
25/12:00pm 30.6 N 6 8 1009.9 - 0.0 - Cloudy 10 - - - -
25/11:30am 32.6 SE 2 8 1010.2 - 0.0 - Partly cloudy 10 - - - -
25/11:00am 32.2 SE 5 7 1010.5 - 0.0 - Partly cloudy 10 - - - -
25/10:30am 31.2 SSE 6 10 1010.9 - 0.0 - Partly cloudy 10 - - - -
25/10:00am 30.4 SE 4 7 1011.0 - 0.0 - - 10 - - - -
25/09:30am 29.7 SSW 5 7 1011.0 - 0.0 - Partly cloudy 10 - - - -
25/09:00am 28.8 S 5 8 1011.3 - 0.0 - Partly cloudy 10 - - - -
25/08:30am 28.3 SSW 4 6 1010.9 - 0.0 - Partly cloudy 10 - - - -
25/08:00am 26.8 SSW 4 5 1010.7 - 0.0 - Partly cloudy 10 - - - -
25/07:30am 25.8 SSW 4 5 1010.3 - 0.0 - - 10 - - - -
25/07:00am 25.2 SSW 3 4 1010.0 - 0.0 - - 10 - - - -
25/06:30am 24.9 SSW 3 5 1009.8 - 0.0 - - 10 - - - -
25/06:00am 24.8 SW 4 5 1009.6 - 0.0 - - 10 - - - -
25/05:30am 24.9 SW 3 5 1009.2 - 0.0 - - 10 - - - -
25/05:00am 25.1 SW 3 4 1009.4 - 0.0 - - 10 - - - -
25/04:30am 25.1 SW 3 4 1009.3 - 0.0 - - 10 - - - -
25/04:00am 25.3 SSW 3 5 1009.1 - 0.0 - - 10 - - - -
25/03:30am 25.3 SSW 3 4 1008.8 - 0.0 - - 10 - - - -
25/03:00am 25.4 SSW 3 5 1009.0 - 0.0 - - 10 - - - -
25/02:30am 25.5 SW 4 5 1009.3 - 0.0 - - 10 - - - -
25/02:00am 25.4 SW 4 5 1009.7 - 0.0 - - 10 - - - -
25/01:30am 25.4 SW 4 5 1010.1 - 0.0 - - 10 - - - -
25/01:00am 25.6 SW 2 4 1010.3 - 0.0 - - 10 - - - -
25/12:30am 25.7 SW 4 5 1010.6 - 0.0 - - 10 - - - -
25/12:00am 26.0 CALM 0 0 1010.6 - 0.0 - - 10 - - - -
 
Date/Time
CST
Temp
°C
Wind Pressure Rain since
9am
mm
Weather Cloud Vis
km
Sea
Height
m
Swell
Dir  Spd
kts
Gust
kts
hPa Trend Height
m
Period
s
Dir
24/11:30pm 25.9 CALM 0 0 1010.6 - 0.0 - - 10 - - - -
24/11:00pm 26.1 NNW 2 4 1010.5 - 0.0 - - 10 - - - -
24/10:30pm 26.4 NNW 2 3 1010.2 - 0.0 - - 10 - - - -
24/10:00pm 26.7 NNW 4 4 1010.1 - 0.0 - - 10 - - - -
24/09:30pm 28.2 NNW 3 4 1009.9 - 0.0 - - 10 - - - -
24/09:00pm 28.3 NNW 4 5 1009.8 - 0.0 - - 10 - - - -
24/08:30pm 28.4 NNW 6 7 1009.6 - 0.0 - - 10 - - - -
24/08:00pm 28.5 NNW 5 6 1009.5 - 0.0 - - 10 - - - -
24/07:30pm 28.8 NNW 5 7 1009.1 - 0.0 - - 10 - - - -
24/07:00pm 28.9 N 5 6 1008.6 - 0.0 - - 10 - - - -
24/06:30pm 29.6 N 7 10 1008.5 - 0.0 - - 10 - - - -
24/06:00pm 30.3 N 8 10 1008.2 - 0.0 - - 10 - - - -
24/05:30pm 30.3 N 9 12 1008.1 - 0.0 - - 10 - - - -
24/05:00pm 31.3 N 9 12 1008.3 - 0.0 - - 10 - - - -
24/04:30pm 31.3 N 9 12 1008.2 - 0.0 - - 10 - - - -
24/04:00pm 31.3 N 10 14 1008.5 - 0.0 - - 10 - - - -
24/03:30pm 31.9 N 10 15 1008.6 - 0.0 - - 10 - - - -
24/03:00pm 31.2 N 12 15 1008.8 - 0.0 - - 10 - - - -
24/02:30pm 31.5 N 11 14 1008.9 - 0.0 - - 10 - - - -

Other Formats:

Comma delimited format used in spreadsheet applications
http://www.bom.gov.au/fwo/IDD60701/IDD60701.95142.axf

JavaScript Object Notation format (JSON) in row-major order
http://www.bom.gov.au/fwo/IDD60701/IDD60701.95142.json